Time;durP1;ratioP1;P1;durP2;ratioP2;P2;SDS_P1;SDS_P2;PMS_P1;PMS_P2;Temp;Humidity;BMP_temperature;BMP_pressure;BME280_temperature;BME280_humidity;BME280_pressure;Samples;Min_cycle;Max_cycle;Signal;HPM_P1;HPM_P2
2022/05/01 00:01:41;;;;;;;11.30;10.90;;;10.50;99.90;;;;;;6292467;22;20216;-82
2022/05/01 00:04:10;;;;;;;11.03;10.73;;;10.50;99.90;;;;;;6292566;22;20212;-82
2022/05/01 00:06:40;;;;;;;11.10;10.80;;;10.60;99.90;;;;;;6292954;22;20193;-82
2022/05/01 00:09:11;;;;;;;11.00;10.70;;;10.60;99.90;;;;;;6292702;22;20285;-82
2022/05/01 00:11:41;;;;;;;10.80;10.50;;;10.60;99.90;;;;;;6292822;22;20201;-82
2022/05/01 00:14:09;;;;;;;10.80;10.50;;;10.60;99.90;;;;;;6292004;22;20226;-81
2022/05/01 00:16:37;;;;;;;10.70;10.40;;;10.60;99.90;;;;;;6292136;22;20216;-82
2022/05/01 00:19:08;;;;;;;10.50;10.20;;;10.60;99.90;;;;;;6292129;22;20193;-82
2022/05/01 00:21:36;;;;;;;11.00;10.70;;;10.60;99.90;;;;;;6293399;22;20228;-82
2022/05/01 00:24:05;;;;;;;10.97;10.67;;;10.60;99.90;;;;;;6293720;22;20265;-81
2022/05/01 00:26:45;;;;;;;11.07;10.77;;;10.60;99.90;;;;;;6300320;22;20196;-81
2022/05/01 00:29:13;;;;;;;11.13;10.80;;;10.60;99.90;;;;;;6304553;22;20189;-82
2022/05/01 00:31:43;;;;;;;10.97;10.67;;;10.50;99.90;;;;;;6296489;22;20189;-82
2022/05/01 00:36:59;;;;;;;10.77;10.47;;;10.60;99.90;;;;;;6294374;22;20197;-82
2022/05/01 00:39:33;;;;;;;10.90;10.60;;;10.60;99.90;;;;;;6293477;22;20190;-82
2022/05/01 00:42:08;;;;;;;10.97;10.67;;;10.50;99.90;;;;;;6293492;22;20186;-81
2022/05/01 00:44:36;;;;;;;10.97;10.67;;;10.50;99.90;;;;;;6298321;22;20193;-82
2022/05/01 00:47:06;;;;;;;10.83;10.53;;;10.40;99.90;;;;;;6308634;22;20200;-81
2022/05/01 00:49:35;;;;;;;10.80;10.50;;;10.40;99.90;;;;;;6304031;22;20194;-82
2022/05/01 00:52:16;;;;;;;10.93;10.63;;;10.40;99.90;;;;;;6293845;22;20240;-82
2022/05/01 00:54:47;;;;;;;10.97;10.67;;;10.30;99.90;;;;;;6285248;22;20206;-83
2022/05/01 00:57:21;;;;;;;10.83;10.53;;;10.30;99.90;;;;;;6260058;22;20205;-83
2022/05/01 00:59:51;;;;;;;10.90;10.60;;;10.30;99.90;;;;;;6259705;22;20193;-83
2022/05/01 01:02:20;;;;;;;10.80;10.50;;;10.40;99.90;;;;;;6259564;22;20198;-82
2022/05/01 01:04:49;;;;;;;10.93;10.63;;;10.40;99.90;;;;;;6259936;22;20264;-83
2022/05/01 01:07:19;;;;;;;11.20;10.80;;;10.40;99.90;;;;;;6260116;22;20253;-82
2022/05/01 01:09:48;;;;;;;10.90;10.60;;;10.40;99.90;;;;;;6259302;22;20237;-82
2022/05/01 01:15:14;;;;;;;11.20;10.80;;;10.40;99.90;;;;;;6260171;22;20205;-83
2022/05/01 01:17:46;;;;;;;11.00;10.70;;;10.40;99.90;;;;;;6260504;22;20233;-82
2022/05/01 01:20:19;;;;;;;11.27;10.87;;;10.40;99.90;;;;;;6261331;22;20245;-82
2022/05/01 01:23:00;;;;;;;10.87;10.57;;;10.40;99.90;;;;;;6260164;22;20199;-83
2022/05/01 01:25:30;;;;;;;11.00;10.70;;;10.40;99.90;;;;;;6259701;22;20201;-82
2022/05/01 01:28:08;;;;;;;11.03;10.73;;;10.40;99.90;;;;;;6259604;22;20191;-82
2022/05/01 01:33:23;;;;;;;10.90;10.60;;;10.40;99.90;;;;;;6259500;22;20186;-82
2022/05/01 01:35:55;;;;;;;10.93;10.63;;;10.40;99.90;;;;;;6258487;22;20198;-82
2022/05/01 01:38:26;;;;;;;10.90;10.60;;;10.40;99.90;;;;;;6259225;22;20198;-83
2022/05/01 01:41:04;;;;;;;11.03;10.63;;;10.40;99.90;;;;;;6261901;22;20190;-82
2022/05/01 01:43:33;;;;;;;10.80;10.50;;;10.40;99.90;;;;;;6264192;22;20198;-82
2022/05/01 01:46:02;;;;;;;11.03;10.63;;;10.40;99.90;;;;;;6263402;22;21057;-82
2022/05/01 01:48:30;;;;;;;10.90;10.60;;;10.40;99.90;;;;;;6261036;22;20190;-82
2022/05/01 01:51:01;;;;;;;10.93;10.63;;;10.40;99.90;;;;;;6260419;22;20249;-83
2022/05/01 01:53:40;;;;;;;10.90;10.60;;;10.40;99.90;;;;;;6259625;22;20198;-82
2022/05/01 01:56:09;;;;;;;11.13;10.73;;;10.40;99.90;;;;;;6259025;22;20224;-83
2022/05/01 01:58:38;;;;;;;11.03;10.70;;;10.40;99.90;;;;;;6262965;22;20210;-82
2022/05/01 02:01:07;;;;;;;10.77;10.47;;;10.40;99.90;;;;;;6262277;22;20194;-82
2022/05/01 02:03:36;;;;;;;11.07;10.70;;;10.40;99.90;;;;;;6261951;22;20221;-83
2022/05/01 02:06:05;;;;;;;11.10;10.70;;;10.30;99.90;;;;;;6261569;22;20253;-82
2022/05/01 02:08:42;;;;;;;10.90;10.60;;;10.30;99.90;;;;;;6261062;22;20218;-82
2022/05/01 02:11:12;;;;;;;10.93;10.63;;;10.30;99.90;;;;;;6260582;22;20221;-82
2022/05/01 02:13:43;;;;;;;10.93;10.63;;;10.30;99.90;;;;;;6260341;22;20202;-82
2022/05/01 02:16:13;;;;;;;11.27;10.87;;;10.30;99.90;;;;;;6258692;22;20217;-82
2022/05/01 02:18:40;;;;;;;10.87;10.57;;;10.30;99.90;;;;;;6259666;22;20221;-82
2022/05/01 02:23:59;;;;;;;11.20;10.80;;;10.20;99.90;;;;;;6260266;22;20197;-81
2022/05/01 02:26:27;;;;;;;11.13;10.73;;;10.20;99.90;;;;;;6272178;22;20294;-82
2022/05/01 02:28:55;;;;;;;11.13;10.73;;;10.20;99.90;;;;;;6262664;22;20217;-82
2022/05/01 02:31:26;;;;;;;11.10;10.70;;;10.20;99.90;;;;;;6262321;22;20212;-82
2022/05/01 02:33:56;;;;;;;11.20;10.80;;;10.20;99.90;;;;;;6260889;22;20283;-82
2022/05/01 02:36:24;;;;;;;10.80;10.50;;;10.20;99.90;;;;;;6260186;22;20198;-82
2022/05/01 02:38:55;;;;;;;11.30;10.90;;;10.20;99.90;;;;;;6260185;22;20205;-83
2022/05/01 02:41:24;;;;;;;11.23;10.83;;;10.20;99.90;;;;;;6259745;22;20194;-83
2022/05/01 02:43:53;;;;;;;11.30;10.90;;;10.10;99.90;;;;;;6259340;22;20244;-82
2022/05/01 02:46:23;;;;;;;11.47;11.07;;;10.10;99.90;;;;;;6259167;22;20260;-82
2022/05/01 02:48:52;;;;;;;11.30;10.90;;;10.10;99.90;;;;;;6258745;22;20237;-82
2022/05/01 02:51:22;;;;;;;11.13;10.73;;;10.10;99.90;;;;;;6258514;22;20195;-82
2022/05/01 02:53:50;;;;;;;11.00;10.60;;;10.10;99.90;;;;;;6259264;22;20201;-83
2022/05/01 02:56:23;;;;;;;11.23;10.83;;;10.10;99.90;;;;;;6259824;22;20202;-82
2022/05/01 02:58:51;;;;;;;11.33;10.93;;;10.20;99.90;;;;;;6259514;22;20198;-82
2022/05/01 03:01:20;;;;;;;11.20;10.80;;;10.10;99.90;;;;;;6259211;22;20229;-82
2022/05/01 03:03:49;;;;;;;11.30;10.90;;;10.10;99.90;;;;;;6259309;22;20221;-82
2022/05/01 03:06:19;;;;;;;11.30;10.90;;;10.10;99.90;;;;;;6259468;22;20253;-82
2022/05/01 03:08:48;;;;;;;11.30;10.90;;;10.00;99.90;;;;;;6277041;22;20217;-82
2022/05/01 03:11:18;;;;;;;11.20;10.80;;;9.90;99.90;;;;;;6273979;22;20263;-82
2022/05/01 03:13:49;;;;;;;11.10;10.70;;;9.90;99.90;;;;;;6256778;22;20213;-82
2022/05/01 03:16:17;;;;;;;11.30;10.90;;;9.90;99.90;;;;;;6256953;22;20198;-82
2022/05/01 03:24:21;;;;;;;11.43;11.03;;;9.90;99.90;;;;;;6257512;22;20265;-82
2022/05/01 03:26:49;;;;;;;11.33;10.93;;;9.90;99.90;;;;;;6256930;22;20245;-82
2022/05/01 03:29:21;;;;;;;11.27;10.87;;;9.90;99.90;;;;;;6258646;22;20681;-82
2022/05/01 03:31:50;;;;;;;11.37;10.97;;;9.90;99.90;;;;;;6258830;22;20194;-82
2022/05/01 03:34:20;;;;;;;11.43;11.03;;;9.90;99.90;;;;;;6258556;22;20217;-82
2022/05/01 03:36:48;;;;;;;11.60;11.20;;;9.90;99.90;;;;;;6259274;22;20190;-82
2022/05/01 03:39:18;;;;;;;11.23;10.83;;;9.90;99.90;;;;;;6266346;22;20206;-83
2022/05/01 03:41:46;;;;;;;11.43;11.03;;;9.90;99.90;;;;;;6280219;22;20194;-83
2022/05/01 03:44:17;;;;;;;11.77;11.37;;;9.90;99.90;;;;;;6275950;22;20218;-82
2022/05/01 03:46:47;;;;;;;11.40;11.00;;;9.90;99.90;;;;;;6264856;22;20198;-82
2022/05/01 03:49:15;;;;;;;11.70;11.30;;;9.80;99.90;;;;;;6263476;22;20186;-83
2022/05/01 03:51:46;;;;;;;11.67;11.27;;;9.90;99.90;;;;;;6262151;22;20198;-82
2022/05/01 03:54:14;;;;;;;11.70;11.30;;;9.90;99.90;;;;;;6262584;22;20195;-82
2022/05/01 03:56:44;;;;;;;11.77;11.37;;;9.90;99.90;;;;;;6261305;22;20203;-82
2022/05/01 03:59:14;;;;;;;11.77;11.37;;;9.90;99.90;;;;;;6265227;22;20207;-82
2022/05/01 04:01:44;;;;;;;11.40;11.00;;;9.90;99.90;;;;;;6262960;22;20183;-82
2022/05/01 04:04:13;;;;;;;11.10;10.70;;;9.90;99.90;;;;;;6261954;22;20202;-82
2022/05/01 04:06:41;;;;;;;11.60;11.20;;;9.90;99.90;;;;;;6261067;22;20202;-83
2022/05/01 04:09:12;;;;;;;11.40;11.00;;;9.90;99.90;;;;;;6261594;22;20194;-82
2022/05/01 04:11:39;;;;;;;11.40;11.00;;;9.90;99.90;;;;;;6261001;22;20253;-83
2022/05/01 04:14:11;;;;;;;11.53;11.13;;;9.90;99.90;;;;;;6259319;22;20195;-82
2022/05/01 04:16:39;;;;;;;11.60;11.20;;;9.90;99.90;;;;;;6259394;22;20191;-81
2022/05/01 04:19:11;;;;;;;11.60;11.20;;;10.00;99.90;;;;;;6259333;22;20206;-82
2022/05/01 04:21:41;;;;;;;11.50;11.10;;;10.00;99.90;;;;;;6264628;22;20262;-83
2022/05/01 04:24:09;;;;;;;11.37;10.97;;;10.00;99.90;;;;;;6267241;22;20194;-82
2022/05/01 04:26:37;;;;;;;11.43;11.03;;;10.00;99.90;;;;;;6262945;22;20191;-82
2022/05/01 04:31:53;;;;;;;11.97;11.57;;;10.00;99.90;;;;;;6261078;22;20182;-82
2022/05/01 04:34:23;;;;;;;11.60;11.20;;;10.00;99.90;;;;;;6260397;22;20248;-82
2022/05/01 04:36:59;;;;;;;11.73;11.33;;;10.00;99.90;;;;;;6259521;22;20249;-82
2022/05/01 04:39:32;;;;;;;11.67;11.27;;;10.00;99.90;;;;;;6259178;22;20205;-82
2022/05/01 04:42:00;;;;;;;11.37;10.97;;;10.00;99.90;;;;;;6259668;22;20191;-82
2022/05/01 04:44:30;;;;;;;11.70;11.30;;;10.00;99.90;;;;;;6269508;22;20209;-83
2022/05/01 04:46:59;;;;;;;11.70;11.30;;;10.00;99.90;;;;;;6277208;22;20198;-83
2022/05/01 04:49:29;;;;;;;11.53;11.13;;;10.00;99.90;;;;;;6272590;22;20293;-83
2022/05/01 04:52:01;;;;;;;11.43;11.03;;;10.00;99.90;;;;;;6264723;22;20186;-83
2022/05/01 04:54:28;;;;;;;11.53;11.13;;;10.00;99.90;;;;;;6262797;22;20206;-83
2022/05/01 04:57:09;;;;;;;11.30;10.90;;;10.00;99.90;;;;;;6263199;22;20198;-83
2022/05/01 04:59:38;;;;;;;11.33;10.93;;;10.00;99.90;;;;;;6260338;22;20186;-83
2022/05/01 05:02:06;;;;;;;11.23;10.83;;;10.00;99.90;;;;;;6259668;22;20208;-83
2022/05/01 05:04:34;;;;;;;11.13;10.73;;;10.10;99.90;;;;;;6260032;22;20194;-83
2022/05/01 05:07:06;;;;;;;11.20;10.80;;;10.10;99.90;;;;;;6259658;22;20244;-83
2022/05/01 05:12:22;;;;;;;11.50;11.10;;;10.10;99.90;;;;;;6261609;22;20261;-83
2022/05/01 05:14:51;;;;;;;11.00;10.70;;;10.00;99.90;;;;;;6260188;22;20194;-84
2022/05/01 05:17:20;;;;;;;11.10;10.80;;;10.00;99.90;;;;;;6259960;22;20200;-83
2022/05/01 05:19:48;;;;;;;11.07;10.77;;;10.00;99.90;;;;;;6261836;22;20217;-83
2022/05/01 05:22:20;;;;;;;11.30;10.90;;;10.00;99.90;;;;;;6277891;22;20197;-83
2022/05/01 05:24:48;;;;;;;11.30;10.90;;;10.10;99.90;;;;;;6278769;22;20182;-83
2022/05/01 05:27:17;;;;;;;11.30;10.90;;;10.10;99.90;;;;;;6278508;22;20174;-84
2022/05/01 05:29:46;;;;;;;11.50;11.10;;;10.20;99.90;;;;;;6263340;22;20198;-83
2022/05/01 05:32:16;;;;;;;11.50;11.10;;;10.30;99.90;;;;;;6260480;22;20198;-83
2022/05/01 05:34:45;;;;;;;11.33;10.93;;;10.40;99.90;;;;;;6261637;22;20297;-83
2022/05/01 05:37:16;;;;;;;11.50;11.10;;;10.40;99.90;;;;;;6260857;22;20198;-83
2022/05/01 05:39:46;;;;;;;11.50;11.10;;;10.50;99.90;;;;;;6260740;22;20191;-84
2022/05/01 05:42:15;;;;;;;11.60;11.20;;;10.60;99.90;;;;;;6261239;22;20201;-83
2022/05/01 05:44:45;;;;;;;10.97;10.67;;;10.60;99.90;;;;;;6259256;22;20202;-84
2022/05/01 05:47:13;;;;;;;10.77;10.47;;;10.60;99.90;;;;;;6259441;22;20273;-83
2022/05/01 05:49:44;;;;;;;10.63;10.33;;;10.80;99.90;;;;;;6263065;22;20213;-83
2022/05/01 05:52:13;;;;;;;10.40;10.10;;;10.90;99.90;;;;;;6264884;22;20198;-83
2022/05/01 05:54:42;;;;;;;10.27;9.97;;;11.00;99.90;;;;;;6262736;22;20216;-83
2022/05/01 05:57:11;;;;;;;10.70;10.40;;;11.10;99.90;;;;;;6260863;22;20186;-82
2022/05/01 05:59:41;;;;;;;10.87;10.57;;;11.20;99.90;;;;;;6263569;22;20212;-81
2022/05/01 06:02:11;;;;;;;10.40;10.10;;;11.30;99.90;;;;;;6260593;22;20202;-82
2022/05/01 06:04:41;;;;;;;10.50;10.20;;;11.40;99.90;;;;;;6260460;22;20206;-83
2022/05/01 06:07:08;;;;;;;10.43;10.13;;;11.40;99.90;;;;;;6259679;22;20201;-82
2022/05/01 06:09:39;;;;;;;10.70;10.40;;;11.40;99.90;;;;;;6259671;22;20201;-82
2022/05/01 06:12:10;;;;;;;10.40;10.10;;;11.40;99.90;;;;;;6259320;22;20194;-82
2022/05/01 06:14:39;;;;;;;10.13;9.83;;;11.50;99.90;;;;;;6260744;22;20216;-82
2022/05/01 06:17:08;;;;;;;10.47;10.17;;;11.50;99.90;;;;;;6260405;22;20276;-82
2022/05/01 06:19:37;;;;;;;10.03;9.73;;;11.60;99.90;;;;;;6267377;22;20244;-82
2022/05/01 06:22:06;;;;;;;10.40;10.10;;;11.70;99.90;;;;;;6266233;22;20200;-82
2022/05/01 06:24:34;;;;;;;10.00;9.70;;;11.70;99.90;;;;;;6262993;22;20210;-81
2022/05/01 06:27:03;;;;;;;10.20;9.90;;;11.70;99.90;;;;;;6262371;22;20209;-82
2022/05/01 06:29:35;;;;;;;10.20;9.90;;;11.80;99.90;;;;;;6261072;22;20191;-82
2022/05/01 06:32:04;;;;;;;10.03;9.73;;;11.80;99.90;;;;;;6260424;22;20225;-82
2022/05/01 06:34:35;;;;;;;10.00;9.70;;;11.80;99.90;;;;;;6277007;22;20184;-82
2022/05/01 06:37:03;;;;;;;10.10;9.80;;;11.80;99.90;;;;;;6276395;22;20186;-82
2022/05/01 06:39:32;;;;;;;10.03;9.73;;;11.90;99.90;;;;;;6264884;22;20206;-82
2022/05/01 06:42:01;;;;;;;10.00;9.70;;;12.00;99.90;;;;;;6265080;22;20194;-82
2022/05/01 06:44:30;;;;;;;9.90;9.60;;;12.10;99.90;;;;;;6262899;22;20197;-82
2022/05/01 06:47:00;;;;;;;9.60;9.30;;;12.20;99.90;;;;;;6261996;22;20193;-83
2022/05/01 06:49:31;;;;;;;10.20;9.90;;;12.30;99.90;;;;;;6261252;22;20197;-82
2022/05/01 06:51:59;;;;;;;10.20;9.90;;;12.40;99.90;;;;;;6261065;22;20197;-81
2022/05/01 06:57:00;;;;;;;10.13;9.83;;;12.50;99.90;;;;;;6319903;22;20208;-82
2022/05/01 06:59:28;;;;;;;9.87;9.57;;;12.60;99.90;;;;;;6321900;22;20201;-81
2022/05/01 07:01:55;;;;;;;10.10;9.80;;;12.60;99.90;;;;;;6322873;22;20275;-82
2022/05/01 07:04:30;;;;;;;9.83;9.53;;;12.70;99.90;;;;;;6323496;22;20204;-81
2022/05/01 07:06:58;;;;;;;9.90;9.60;;;12.70;99.90;;;;;;6323803;22;20190;-81
2022/05/01 07:09:26;;;;;;;9.67;9.37;;;12.70;99.90;;;;;;6324399;22;20270;-81
2022/05/01 07:11:55;;;;;;;9.67;9.37;;;12.80;99.90;;;;;;6324648;22;20216;-82
2022/05/01 07:14:24;;;;;;;9.63;9.33;;;12.90;99.90;;;;;;6336776;22;20177;-80
2022/05/01 07:16:54;;;;;;;9.90;9.60;;;12.80;99.90;;;;;;6341548;22;20197;-79
2022/05/01 07:19:25;;;;;;;9.80;9.50;;;12.90;99.90;;;;;;6339546;22;20279;-81
2022/05/01 07:21:53;;;;;;;10.10;9.80;;;13.00;99.90;;;;;;6336365;22;20197;-82
2022/05/01 07:24:23;;;;;;;9.90;9.60;;;13.00;99.90;;;;;;6327109;22;20189;-82
2022/05/01 07:26:51;;;;;;;9.97;9.67;;;13.10;99.90;;;;;;6325937;22;20248;-81
2022/05/01 07:29:22;;;;;;;9.60;9.30;;;13.20;99.90;;;;;;6328468;22;20185;-82
2022/05/01 07:31:50;;;;;;;9.70;9.40;;;13.30;99.90;;;;;;6325881;22;20200;-82
2022/05/01 07:34:21;;;;;;;9.70;9.40;;;13.40;99.90;;;;;;6325886;22;20192;-82
2022/05/01 07:37:01;;;;;;;9.63;9.33;;;13.40;99.90;;;;;;6328575;22;20189;-82
2022/05/01 07:39:29;;;;;;;9.70;9.40;;;13.60;99.90;;;;;;6326123;22;20203;-82
2022/05/01 07:42:00;;;;;;;9.90;9.60;;;13.50;99.90;;;;;;6324348;22;20276;-81
2022/05/01 07:44:28;;;;;;;9.97;9.67;;;13.50;99.90;;;;;;6334665;22;20197;-81
2022/05/01 07:46:57;;;;;;;9.63;9.33;;;13.60;99.90;;;;;;6333606;22;20193;-81
2022/05/01 07:49:27;;;;;;;9.80;9.50;;;13.60;99.90;;;;;;6336883;22;20197;-81
2022/05/01 07:51:59;;;;;;;9.80;9.50;;;13.60;99.90;;;;;;6338531;22;20188;-81
2022/05/01 07:54:27;;;;;;;9.90;9.60;;;13.80;99.90;;;;;;6339018;22;20200;-81
2022/05/01 07:56:58;;;;;;;9.73;9.43;;;14.00;99.90;;;;;;6338705;22;20189;-81
2022/05/01 07:59:26;;;;;;;9.50;9.20;;;14.20;99.90;;;;;;6339721;22;20201;-81
2022/05/01 08:01:54;;;;;;;9.20;8.90;;;14.30;99.90;;;;;;6339716;22;20181;-81
2022/05/01 08:04:31;;;;;;;9.17;8.87;;;14.40;99.90;;;;;;6338171;22;20193;-80
2022/05/01 08:07:20;;;;;;;9.10;8.80;;;14.50;99.90;;;;;;6337053;22;20249;-81
2022/05/01 08:09:49;;;;;;;9.15;8.85;;;14.70;99.90;;;;;;6336091;22;20219;-81
2022/05/01 08:12:18;;;;;;;9.32;9.02;;;14.80;99.90;;;;;;6337784;22;20205;-81
2022/05/01 08:14:48;;;;;;;9.25;8.95;;;14.80;99.90;;;;;;6331804;22;20207;-81
2022/05/01 08:17:17;;;;;;;9.30;9.00;;;14.90;99.90;;;;;;6340418;22;20209;-82
2022/05/01 08:22:36;;;;;;;9.35;9.05;;;14.90;99.90;;;;;;6338840;22;20177;-81
2022/05/01 08:25:05;;;;;;;8.98;8.77;;;14.80;99.90;;;;;;6338673;22;20177;-81
2022/05/01 08:27:36;;;;;;;9.10;8.80;;;14.80;99.90;;;;;;6330890;22;20216;-80
2022/05/01 08:30:05;;;;;;;9.80;9.50;;;14.60;99.90;;;;;;6326319;22;20247;-80
2022/05/01 08:32:32;;;;;;;9.43;9.13;;;14.60;99.90;;;;;;6326449;22;20197;-80
2022/05/01 08:35:01;;;;;;;9.50;9.20;;;14.80;99.90;;;;;;6324617;22;20266;-81
2022/05/01 08:37:30;;;;;;;9.60;9.30;;;15.00;99.90;;;;;;6324673;22;20204;-80
2022/05/01 08:40:11;;;;;;;9.32;9.02;;;15.00;99.90;;;;;;6324767;22;20231;-81
2022/05/01 08:42:48;;;;;;;9.57;9.27;;;14.90;99.90;;;;;;6324576;22;20203;-81
2022/05/01 08:45:26;;;;;;;9.60;9.30;;;14.80;99.90;;;;;;6323872;22;20196;-81
2022/05/01 08:48:04;;;;;;;9.50;9.20;;;14.80;99.90;;;;;;6324356;22;20197;-81
2022/05/01 08:50:36;;;;;;;9.55;9.25;;;14.80;99.90;;;;;;6324772;22;20185;-81
2022/05/01 08:53:04;;;;;;;9.73;9.43;;;14.90;99.90;;;;;;6327599;22;20255;-81
2022/05/01 08:55:35;;;;;;;9.60;9.30;;;15.00;99.90;;;;;;6323836;22;21009;-81
2022/05/01 08:58:10;;;;;;;9.70;9.40;;;15.20;99.90;;;;;;6332826;22;20259;-80
2022/05/01 09:00:41;;;;;;;9.55;9.25;;;15.50;99.90;;;;;;6324157;22;20292;-81
2022/05/01 09:03:09;;;;;;;9.68;9.38;;;15.50;99.90;;;;;;6325485;22;20256;-81
2022/05/01 09:05:38;;;;;;;9.25;8.95;;;15.30;99.90;;;;;;6324249;22;20232;-81
2022/05/01 09:08:08;;;;;;;9.43;9.13;;;15.20;99.90;;;;;;6325236;22;20193;-81
2022/05/01 09:10:46;;;;;;;9.70;9.40;;;15.20;99.90;;;;;;6323664;22;20220;-81
2022/05/01 09:13:13;;;;;;;9.80;9.50;;;15.30;99.90;;;;;;6324455;22;20192;-81
2022/05/01 09:15:45;;;;;;;9.45;9.15;;;15.30;99.90;;;;;;6323415;22;20666;-81
2022/05/01 09:18:14;;;;;;;9.48;9.18;;;15.20;99.90;;;;;;6323815;22;20189;-81
2022/05/01 09:21:07;;;;;;;9.70;9.40;;;15.20;99.90;;;;;;6324888;22;20231;-81
2022/05/01 09:23:39;;;;;;;9.27;8.98;;;15.20;99.90;;;;;;6327420;22;20197;-82
2022/05/01 09:26:18;;;;;;;9.60;9.30;;;15.30;99.90;;;;;;6324047;22;20200;-82
2022/05/01 09:28:56;;;;;;;9.63;9.32;;;15.40;99.90;;;;;;6324638;22;20184;-82
2022/05/01 09:31:52;;;;;;;9.55;9.25;;;15.50;99.90;;;;;;6324522;22;20193;-82
2022/05/01 09:34:26;;;;;;;9.73;9.43;;;15.60;99.90;;;;;;6335041;22;20250;-82
2022/05/01 09:36:55;;;;;;;9.80;9.50;;;15.70;99.90;;;;;;6336815;22;20248;-82
2022/05/01 09:39:25;;;;;;;9.70;9.40;;;15.80;99.90;;;;;;6328399;22;20211;-82
2022/05/01 09:42:00;;;;;;;9.55;9.25;;;15.90;99.90;;;;;;6332216;22;20189;-82
2022/05/01 09:44:29;;;;;;;9.57;9.27;;;16.00;99.90;;;;;;6329208;22;20195;-82
2022/05/01 09:47:00;;;;;;;9.63;9.32;;;16.10;99.90;;;;;;6329121;22;20254;-82
2022/05/01 09:49:47;;;;;;;9.65;9.35;;;16.30;99.90;;;;;;6329633;22;20185;-82
2022/05/01 09:52:16;;;;;;;9.80;9.50;;;16.40;99.90;;;;;;6331198;22;20269;-82
2022/05/01 09:55:03;;;;;;;9.77;9.48;;;16.40;99.90;;;;;;6329495;22;20197;-82
2022/05/01 09:57:43;;;;;;;9.60;9.30;;;16.60;99.90;;;;;;6328059;22;20279;-82
2022/05/01 10:00:19;;;;;;;9.68;9.38;;;16.60;99.90;;;;;;6329440;22;20208;-82
2022/05/01 10:02:50;;;;;;;9.30;9.00;;;16.80;99.90;;;;;;6328543;22;20189;-82
2022/05/01 10:05:29;;;;;;;9.43;9.13;;;16.90;99.90;;;;;;6325320;22;20205;-82
2022/05/01 10:07:57;;;;;;;9.73;9.43;;;17.10;99.90;;;;;;6323401;22;20200;-82
2022/05/01 10:10:28;;;;;;;9.50;9.20;;;17.30;99.90;;;;;;6325071;22;20206;-82
2022/05/01 10:13:04;;;;;;;9.60;9.30;;;17.40;99.90;;;;;;6323919;22;20203;-82
2022/05/01 10:15:34;;;;;;;9.48;9.18;;;17.50;99.90;;;;;;6323532;22;20223;-81
2022/05/01 10:18:12;;;;;;;9.30;9.00;;;17.60;99.90;;;;;;6323648;22;20200;-82
2022/05/01 10:20:49;;;;;;;9.88;9.57;;;18.00;99.90;;;;;;6323291;22;20200;-82
2022/05/01 10:23:21;;;;;;;9.80;9.50;;;18.00;99.90;;;;;;6324742;22;20192;-82
2022/05/01 10:26:00;;;;;;;9.80;9.50;;;17.90;99.90;;;;;;6323309;22;20214;-82
2022/05/01 10:28:53;;;;;;;9.60;9.30;;;17.90;99.90;;;;;;6325584;22;20196;-82
2022/05/01 10:35:23;;;;;;;9.70;9.40;;;18.70;99.90;;;;;;6228940;22;20233;-82
2022/05/01 10:38:26;;;;;;;9.45;9.15;;;18.80;99.90;;;;;;6245748;22;20196;-82
2022/05/01 10:41:03;;;;;;;9.43;9.13;;;18.80;99.90;;;;;;6323778;22;20192;-82
2022/05/01 10:43:59;;;;;;;9.70;9.40;;;18.80;99.90;;;;;;6327314;22;20196;-82
2022/05/01 10:46:37;;;;;;;9.63;9.32;;;18.80;99.90;;;;;;6326278;22;20197;-82
2022/05/01 10:49:52;;;;;;;9.73;9.43;;;19.10;99.90;;;;;;6323459;22;20279;-82
2022/05/01 10:52:38;;;;;;;10.00;9.70;;;19.80;99.90;;;;;;6323288;22;20244;-82
2022/05/01 10:55:07;;;;;;;10.20;9.90;;;20.20;99.90;;;;;;6320168;22;20204;-82
2022/05/01 10:57:45;;;;;;;9.90;9.60;;;20.20;99.90;;;;;;6323871;22;20200;-82
2022/05/01 11:00:52;;;;;;;9.60;9.30;;;20.50;99.90;;;;;;6324222;22;20196;-82
2022/05/01 11:03:38;;;;;;;9.80;9.50;;;20.40;99.90;;;;;;6323957;22;20193;-82
2022/05/01 11:06:17;;;;;;;10.00;9.70;;;20.30;99.90;;;;;;6323462;22;20204;-83
2022/05/01 11:08:55;;;;;;;9.90;9.60;;;20.40;99.90;;;;;;6323695;22;20228;-82
2022/05/01 11:11:33;;;;;;;9.88;9.57;;;20.40;99.90;;;;;;6323501;22;20189;-82
2022/05/01 11:14:02;;;;;;;9.85;9.55;;;20.40;99.90;;;;;;6326159;22;20191;-82
2022/05/01 11:16:56;;;;;;;10.05;9.75;;;20.60;99.90;;;;;;6338834;22;20216;-82
2022/05/01 11:19:27;;;;;;;9.95;9.65;;;20.60;99.90;;;;;;6338152;22;20208;-81
2022/05/01 11:21:56;;;;;;;10.00;9.70;;;20.40;99.90;;;;;;6326547;22;20189;-82
2022/05/01 11:24:42;;;;;;;9.80;9.50;;;19.80;99.90;;;;;;6325646;22;20188;-82
2022/05/01 11:27:22;;;;;;;9.95;9.65;;;19.40;99.90;;;;;;6324798;22;20200;-82
2022/05/01 11:30:25;;;;;;;9.85;9.55;;;19.40;99.90;;;;;;6323165;22;20197;-82
2022/05/01 11:33:24;;;;;;;9.52;9.23;;;19.30;99.90;;;;;;6322637;22;20197;-82
2022/05/01 11:36:12;;;;;;;9.60;9.30;;;18.70;99.90;;;;;;6322008;22;20205;-82
2022/05/01 11:38:56;;;;;;;9.90;9.60;;;18.30;99.90;;;;;;6326722;22;20191;-82
2022/05/01 11:41:45;;;;;;;9.77;9.48;;;17.90;99.90;;;;;;6328392;22;20197;-82
2022/05/01 11:44:23;;;;;;;9.80;9.50;;;17.80;99.90;;;;;;6324340;22;20189;-81
2022/05/01 11:46:52;;;;;;;9.90;9.60;;;17.70;99.90;;;;;;6323208;22;20200;-81
2022/05/01 11:49:23;;;;;;;9.90;9.60;;;17.90;99.90;;;;;;6325266;22;20217;-81
2022/05/01 11:51:53;;;;;;;9.80;9.50;;;17.70;99.90;;;;;;6328279;22;20196;-81
2022/05/01 11:54:31;;;;;;;9.80;9.50;;;17.50;99.90;;;;;;6334768;22;20197;-81
2022/05/01 12:02:33;;;;;;;9.80;9.50;;;17.10;99.90;;;;;;6326382;22;20220;-83
2022/05/01 12:05:13;;;;;;;9.93;9.63;;;17.20;99.90;;;;;;6325468;22;20207;-81
2022/05/01 12:07:40;;;;;;;9.77;9.48;;;17.10;99.90;;;;;;6328591;22;20192;-81
2022/05/01 12:10:20;;;;;;;9.85;9.55;;;17.10;99.90;;;;;;6336865;22;20220;-81
2022/05/01 12:12:48;;;;;;;9.68;9.38;;;17.10;99.90;;;;;;6336279;22;20192;-82
2022/05/01 12:15:17;;;;;;;9.80;9.50;;;17.30;99.90;;;;;;6326130;22;20227;-82
2022/05/01 12:17:46;;;;;;;9.90;9.60;;;17.50;99.90;;;;;;6325900;22;20204;-82
2022/05/01 12:20:24;;;;;;;9.60;9.30;;;17.60;99.90;;;;;;6325122;22;20197;-81
2022/05/01 12:22:55;;;;;;;9.50;9.20;;;17.60;99.90;;;;;;6326358;22;20280;-81
2022/05/01 12:25:27;;;;;;;9.60;9.30;;;17.40;99.90;;;;;;6325688;22;20240;-81
2022/05/01 12:27:55;;;;;;;9.75;9.45;;;17.40;99.90;;;;;;6325210;22;20247;-81
2022/05/01 12:30:27;;;;;;;9.90;9.60;;;17.50;99.90;;;;;;6325992;22;20197;-81
2022/05/01 12:33:00;;;;;;;9.70;9.40;;;17.50;99.90;;;;;;6326436;22;20192;-82
2022/05/01 12:35:58;;;;;;;9.88;9.57;;;17.50;99.90;;;;;;6323969;22;21060;-81
2022/05/01 12:44:00;;;;;;;9.88;9.57;;;17.10;99.90;;;;;;6325616;22;20181;-82
2022/05/01 12:46:30;;;;;;;9.68;9.38;;;17.20;99.90;;;;;;6325359;22;20224;-81
2022/05/01 12:48:59;;;;;;;10.10;9.80;;;17.20;99.90;;;;;;6326033;22;20221;-81
2022/05/01 12:51:47;;;;;;;9.98;9.68;;;17.10;99.90;;;;;;6325460;22;20201;-81
2022/05/01 12:54:17;;;;;;;9.77;9.48;;;17.00;99.90;;;;;;6325755;22;20193;-82
2022/05/01 12:57:03;;;;;;;9.88;9.57;;;17.00;99.90;;;;;;6302625;22;20284;-84
2022/05/01 13:00:13;;;;;;;9.70;9.40;;;17.00;99.90;;;;;;6293151;22;20263;-85
2022/05/01 13:06:37;;;;;;;10.00;9.70;;;17.00;99.90;;;;;;6286703;22;20201;-86
2022/05/01 13:09:33;;;;;;;9.82;9.52;;;17.20;99.90;;;;;;6289686;22;20190;-85
2022/05/01 13:12:11;;;;;;;10.00;9.70;;;17.30;99.90;;;;;;6289569;22;20198;-85
2022/05/01 13:18:18;;;;;;;9.35;9.05;;;17.20;99.90;;;;;;6302780;22;20259;-84
2022/05/01 13:24:30;;;;;;;9.60;9.30;;;17.10;99.90;;;;;;6305075;22;20265;-83
2022/05/01 13:30:11;;;;;;;9.50;9.20;;;17.00;99.90;;;;;;6310209;22;20185;-86
2022/05/01 13:38:50;;;;;;;9.70;9.40;;;16.40;99.90;;;;;;6290222;22;20442;-87
2022/05/01 13:44:54;;;;;;;9.65;9.35;;;16.70;99.90;;;;;;6287769;22;20178;-85
2022/05/01 13:47:40;;;;;;;9.80;9.50;;;16.60;99.90;;;;;;6288692;22;20283;-85
2022/05/01 13:53:48;;;;;;;10.00;9.70;;;16.70;99.90;;;;;;6285450;22;20639;-86
2022/05/01 13:56:33;;;;;;;9.82;9.52;;;16.80;99.90;;;;;;6285790;22;20197;-86
2022/05/01 14:05:34;;;;;;;9.60;9.30;;;16.60;99.90;;;;;;6289057;22;20204;-86
2022/05/01 14:08:18;;;;;;;9.60;9.30;;;16.60;99.90;;;;;;6291683;22;20200;-86
2022/05/01 14:11:33;;;;;;;9.90;9.60;;;16.60;99.90;;;;;;6290948;22;20194;-85
2022/05/01 14:21:24;;;;;;;9.43;9.13;;;16.50;99.90;;;;;;6382584;22;20211;-85
2022/05/01 14:24:25;;;;;;;9.55;9.25;;;16.60;99.90;;;;;;6380527;22;20198;-85
2022/05/01 14:27:28;;;;;;;9.73;9.43;;;16.60;99.90;;;;;;6355623;22;20235;-85
2022/05/01 14:33:13;;;;;;;9.80;9.50;;;16.60;99.90;;;;;;6355810;22;20210;-84
2022/05/01 14:36:01;;;;;;;9.70;9.40;;;16.60;99.90;;;;;;6371757;22;20192;-82